SBMN/MAO METAR and TAF weather

Enter ICAO airport designator
Station Type Date Time Source
SBMN METAR 2019/10/15 04:00 UTC NOAA

SBMN 150400Z 17003KT 9999 VCTS FEW008 FEW025CB 26/24 Q1012


Station Type Date Time Source
SBMN Decoded METAR 2019/10/15 04:00 UTC NOAA

Manaus Aeroporto , Brazil (SBMN) 03-09S 059-59W 84M
Oct 15, 2019 - 12:00 AM EDT / 2019.10.15 0400 UTC
Wind: from the S (170 degrees) at 3 MPH (3 KT):0
Visibility: greater than 7 mile(s):0
Sky conditions: mostly clear
Weather: thunder in the vicinity; Cumulonimbus clouds observed
Temperature: 78 F (26 C)
Dew Point: 75 F (24 C)
Relative Humidity: 88%
Pressure (altimeter): 29.88 in. Hg (1012 hPa)
ob: SBMN 150400Z 17003KT 9999 VCTS FEW008 FEW025CB 26/24 Q1012
cycle: 4

Station Type Date Time Source
SBMN TAF 2019/10/15 06:24 UTC NOAA

TAF TAF SBMN 150400Z 1506/1518 26005KT 7000 TSRA BKN018 FEW025CB TN23/1506Z TX32/1518Z
BECMG 1512/1514 24003KT FEW015
BECMG 1516/1518 16005KT SCT020 FEW025TCU
RMK PAY

Example: see airport list